createdAt,value
2023-02-11T00:00:39.241Z,36.80
2023-02-11T00:01:39.218Z,38.00
2023-02-11T00:02:39.201Z,37.80
2023-02-11T00:03:39.314Z,35.80
2023-02-11T00:04:39.215Z,38.20
2023-02-11T00:05:39.184Z,38.30
2023-02-11T00:06:39.178Z,37.00
2023-02-11T00:07:39.150Z,34.50
2023-02-11T00:08:39.150Z,33.30
2023-02-11T00:09:39.160Z,38.00
2023-02-11T00:10:39.122Z,30.60
2023-02-11T00:11:39.216Z,32.50
2023-02-11T00:12:39.102Z,35.50
2023-02-11T00:13:39.083Z,36.90
2023-02-11T00:14:39.094Z,39.30
2023-02-11T00:15:39.063Z,39.20
2023-02-11T00:16:39.160Z,33.20
2023-02-11T00:17:39.043Z,35.10
2023-02-11T00:18:39.031Z,33.90
2023-02-11T00:19:39.014Z,31.70
2023-02-11T00:20:39.035Z,33.30
2023-02-11T00:21:39.003Z,33.70
2023-02-11T00:22:38.992Z,31.80
2023-02-11T00:23:38.978Z,38.30
2023-02-11T00:24:38.971Z,34.40
2023-02-11T00:25:38.952Z,34.50
2023-02-11T00:26:38.975Z,39.40
2023-02-11T00:27:38.934Z,29.60
2023-02-11T00:28:38.924Z,35.60
2023-02-11T00:29:38.930Z,34.10
2023-02-11T00:30:39.018Z,27.10
2023-02-11T00:31:39.022Z,44.90
2023-02-11T00:32:38.883Z,33.40
2023-02-11T00:33:38.861Z,37.80
2023-02-11T00:34:38.871Z,43.50
2023-02-11T00:35:38.840Z,37.30
2023-02-11T00:36:38.830Z,37.20
2023-02-11T00:37:38.815Z,31.40
2023-02-11T00:38:38.812Z,45.50
2023-02-11T00:39:38.800Z,40.70
2023-02-11T00:40:38.810Z,34.70
2023-02-11T00:41:38.792Z,37.00
2023-02-11T00:42:38.762Z,34.50
2023-02-11T00:43:38.758Z,37.20
2023-02-11T00:44:38.746Z,36.90
2023-02-11T00:45:38.750Z,33.50
2023-02-11T00:46:38.800Z,34.90
2023-02-11T00:47:38.716Z,30.80
2023-02-11T00:48:38.700Z,38.70
2023-02-11T00:49:38.696Z,38.80
2023-02-11T00:50:38.677Z,36.60
2023-02-11T00:51:38.694Z,34.50
2023-02-11T00:52:38.649Z,35.50
2023-02-11T00:53:38.649Z,32.60
2023-02-11T00:54:38.632Z,38.30
2023-02-11T00:55:38.620Z,37.80
2023-02-11T00:56:38.629Z,36.00
2023-02-11T00:57:38.604Z,25.80
2023-02-11T00:58:38.597Z,33.70
2023-02-11T00:59:38.580Z,32.70
2023-02-11T01:00:38.559Z,34.10
2023-02-11T01:01:38.616Z,31.40
2023-02-11T01:02:38.568Z,33.70
2023-02-11T01:03:38.530Z,36.80
2023-02-11T01:04:38.519Z,31.50
2023-02-11T01:05:38.597Z,41.50
2023-02-11T01:06:38.501Z,37.60
2023-02-11T01:07:38.510Z,33.50
2023-02-11T01:08:38.497Z,25.80
2023-02-11T01:09:38.502Z,33.60
2023-02-11T01:10:38.461Z,32.70
2023-02-11T01:11:38.452Z,30.90
2023-02-11T01:12:38.442Z,24.50
2023-02-11T01:13:38.443Z,38.30
2023-02-11T01:14:38.414Z,28.00
2023-02-11T01:15:38.457Z,30.40
2023-02-11T01:16:38.403Z,28.50
2023-02-11T01:17:38.397Z,36.20
2023-02-11T01:18:38.382Z,32.00
2023-02-11T01:19:38.372Z,34.30
2023-02-11T01:20:38.365Z,29.80
2023-02-11T01:21:38.349Z,30.60
2023-02-11T01:22:38.332Z,33.90
2023-02-11T01:23:38.323Z,32.10
2023-02-11T01:24:38.334Z,32.20
2023-02-11T01:25:38.295Z,31.70
2023-02-11T01:26:38.283Z,31.20
2023-02-11T01:27:38.282Z,31.00
2023-02-11T01:28:38.278Z,36.10
2023-02-11T01:29:38.257Z,31.90
2023-02-11T01:30:38.276Z,36.50
2023-02-11T01:31:38.371Z,34.40
2023-02-11T01:32:38.224Z,31.70
2023-02-11T01:33:38.223Z,33.80
2023-02-11T01:34:38.206Z,30.90
2023-02-11T01:35:38.195Z,30.90
2023-02-11T01:36:38.205Z,36.00
2023-02-11T01:37:38.175Z,29.80
2023-02-11T01:38:38.154Z,31.00
2023-02-11T01:39:38.145Z,34.90
2023-02-11T01:40:38.135Z,33.50
2023-02-11T01:41:38.165Z,31.60
2023-02-11T01:42:38.115Z,32.00
2023-02-11T01:43:38.106Z,28.50
2023-02-11T01:44:38.098Z,33.10
2023-02-11T01:45:38.085Z,27.80
2023-02-11T01:46:38.180Z,25.90
2023-02-11T01:47:38.095Z,29.60
2023-02-11T01:48:38.045Z,29.90
2023-02-11T01:49:38.119Z,31.80
2023-02-11T01:50:38.027Z,31.40
2023-02-11T01:51:38.026Z,33.90
2023-02-11T01:52:38.029Z,26.20
2023-02-11T01:53:37.997Z,31.50
2023-02-11T01:54:37.984Z,32.10
2023-02-11T01:55:37.982Z,30.90
2023-02-11T01:56:37.958Z,25.90
2023-02-11T01:57:37.976Z,29.90
2023-02-11T01:58:37.939Z,35.50
2023-02-11T01:59:37.927Z,26.10
2023-02-11T02:00:37.922Z,29.30
2023-02-11T02:01:37.998Z,29.90
2023-02-11T02:02:37.904Z,25.90
2023-02-11T02:03:37.962Z,29.30
2023-02-11T02:04:37.876Z,27.30
2023-02-11T02:05:37.867Z,31.30
2023-02-11T02:06:37.857Z,26.40
2023-02-11T02:07:37.848Z,27.60
2023-02-11T02:08:37.864Z,33.80
2023-02-11T02:09:37.826Z,31.80
2023-02-11T02:10:37.811Z,30.00
2023-02-11T02:11:37.797Z,29.80
2023-02-11T02:12:37.788Z,31.50
2023-02-11T02:13:37.785Z,27.50
2023-02-11T02:14:37.793Z,26.10
2023-02-11T02:15:37.766Z,25.30
2023-02-11T02:16:37.848Z,25.60
2023-02-11T02:17:37.742Z,33.60
2023-02-11T02:18:37.715Z,29.10
2023-02-11T02:19:37.706Z,36.10
2023-02-11T02:20:37.738Z,29.30
2023-02-11T02:21:37.684Z,29.90
2023-02-11T02:22:37.672Z,28.70
2023-02-11T02:23:37.670Z,25.10
2023-02-11T02:24:37.660Z,25.50
2023-02-11T02:25:37.671Z,26.20
2023-02-11T02:26:37.629Z,28.10
2023-02-11T02:27:37.644Z,34.20
2023-02-11T02:28:37.621Z,31.10
2023-02-11T02:29:37.595Z,32.00
2023-02-11T02:30:37.638Z,25.10
2023-02-11T02:31:37.619Z,29.00
2023-02-11T02:32:37.577Z,27.80
2023-02-11T02:33:37.560Z,31.20
2023-02-11T02:34:37.552Z,26.90
2023-02-11T02:35:37.563Z,29.20
2023-02-11T02:36:37.516Z,29.40
2023-02-11T02:37:37.512Z,29.00
2023-02-11T02:38:37.508Z,24.20
2023-02-11T02:39:37.500Z,34.90
2023-02-11T02:40:37.482Z,27.90
2023-02-11T02:41:37.484Z,29.70
2023-02-11T02:42:37.459Z,35.60
2023-02-11T02:43:37.448Z,28.00
2023-02-11T02:44:37.444Z,31.80
2023-02-11T02:45:37.424Z,28.90
2023-02-11T02:46:37.484Z,24.30
2023-02-11T02:47:37.406Z,28.90
2023-02-11T02:48:37.401Z,28.40
2023-02-11T02:49:37.399Z,23.60
2023-02-11T02:50:37.384Z,24.10
2023-02-11T02:51:37.378Z,22.10
2023-02-11T02:52:37.377Z,29.40
2023-02-11T02:53:37.356Z,25.90
2023-02-11T02:54:37.331Z,25.40
2023-02-11T02:55:37.317Z,25.50
2023-02-11T02:56:37.312Z,21.30
2023-02-11T02:57:37.317Z,24.70
2023-02-11T02:58:37.285Z,25.00
2023-02-11T02:59:37.268Z,25.80
2023-02-11T03:00:37.329Z,28.90
2023-02-11T03:01:37.287Z,28.00
2023-02-11T03:02:37.259Z,23.50
2023-02-11T03:03:37.283Z,24.70
2023-02-11T03:04:37.227Z,24.60
2023-02-11T03:05:37.215Z,21.30
2023-02-11T03:06:37.239Z,21.40
2023-02-11T03:07:37.196Z,23.80
2023-02-11T03:08:37.169Z,29.70
2023-02-11T03:09:37.162Z,29.90
2023-02-11T03:10:37.150Z,20.10
2023-02-11T03:11:37.139Z,26.00
2023-02-11T03:12:37.157Z,21.60
2023-02-11T03:13:37.145Z,16.60
2023-02-11T03:14:37.109Z,20.50
2023-02-11T03:15:37.106Z,23.70
2023-02-11T03:16:37.130Z,22.60
2023-02-11T03:17:37.083Z,22.80
2023-02-11T03:18:37.068Z,21.10
2023-02-11T03:19:37.069Z,22.30
2023-02-11T03:20:37.088Z,18.60
2023-02-11T03:21:37.032Z,21.80
2023-02-11T03:22:37.056Z,24.30
2023-02-11T03:23:37.014Z,27.30
2023-02-11T03:24:37.015Z,22.30
2023-02-11T03:25:37.012Z,25.10
2023-02-11T03:26:36.992Z,21.80
2023-02-11T03:27:36.972Z,25.40
2023-02-11T03:28:36.978Z,22.60
2023-02-11T03:29:36.977Z,19.30
2023-02-11T03:30:36.961Z,20.70
2023-02-11T03:31:37.047Z,18.10
2023-02-11T03:32:36.921Z,21.90
2023-02-11T03:33:36.939Z,19.90
2023-02-11T03:34:36.931Z,22.30
2023-02-11T03:35:36.886Z,22.20
2023-02-11T03:36:36.870Z,17.20
2023-02-11T03:37:36.869Z,22.70
2023-02-11T03:38:36.850Z,22.70
2023-02-11T03:39:36.856Z,23.10
2023-02-11T03:40:36.852Z,16.80
2023-02-11T03:41:36.828Z,22.50
2023-02-11T03:42:36.842Z,24.30
2023-02-11T03:43:36.794Z,19.50
2023-02-11T03:44:36.779Z,24.10
2023-02-11T03:45:36.837Z,21.70
2023-02-11T03:46:36.759Z,21.50
2023-02-11T03:47:36.782Z,22.00
2023-02-11T03:48:36.749Z,21.00
2023-02-11T03:49:36.731Z,19.30
2023-02-11T03:50:36.730Z,23.60
2023-02-11T03:51:36.709Z,28.20
2023-02-11T03:52:36.718Z,21.90
2023-02-11T03:53:36.682Z,15.90
2023-02-11T03:54:36.673Z,21.50
2023-02-11T03:55:36.661Z,22.80
2023-02-11T03:56:36.653Z,23.20
2023-02-11T03:57:36.670Z,18.10
2023-02-11T03:58:36.635Z,23.30
2023-02-11T03:59:36.628Z,16.20
2023-02-11T04:00:36.654Z,20.50
2023-02-11T04:01:36.603Z,21.10
2023-02-11T04:02:36.590Z,19.00
2023-02-11T04:03:36.684Z,20.40
2023-02-11T04:04:36.581Z,22.30
2023-02-11T04:05:36.562Z,25.20
2023-02-11T04:06:36.542Z,18.50
2023-02-11T04:07:36.548Z,29.10
2023-02-11T04:08:36.548Z,19.20
2023-02-11T04:09:36.521Z,27.80
2023-02-11T04:10:36.515Z,22.70
2023-02-11T04:11:36.504Z,20.70
2023-02-11T04:12:36.485Z,23.90
2023-02-11T04:13:36.483Z,20.30
2023-02-11T04:14:36.485Z,24.30
2023-02-11T04:15:36.456Z,26.60
2023-02-11T04:16:36.506Z,23.60
2023-02-11T04:17:36.442Z,18.80
2023-02-11T04:18:36.492Z,28.50
2023-02-11T04:19:36.421Z,27.10
2023-02-11T04:20:36.425Z,25.30
2023-02-11T04:21:36.383Z,32.10
2023-02-11T04:22:36.383Z,24.00
2023-02-11T04:23:36.374Z,23.90
2023-02-11T04:24:36.359Z,21.50
2023-02-11T04:25:36.347Z,20.60
2023-02-11T04:26:36.365Z,19.60
2023-02-11T04:27:36.324Z,24.60
2023-02-11T04:28:36.408Z,21.20
2023-02-11T04:29:36.307Z,25.90
2023-02-11T04:30:36.317Z,23.70
2023-02-11T04:31:36.320Z,18.90
2023-02-11T04:32:36.287Z,18.50
2023-02-11T04:33:36.276Z,27.00
2023-02-11T04:34:36.253Z,24.40
2023-02-11T04:35:36.242Z,18.50
2023-02-11T04:36:36.223Z,17.90
2023-02-11T04:37:36.244Z,22.90
2023-02-11T04:38:36.207Z,22.50
2023-02-11T04:39:36.207Z,25.20
2023-02-11T04:40:36.184Z,19.10
2023-02-11T04:41:36.176Z,24.40
2023-02-11T04:42:36.183Z,18.90
2023-02-11T04:43:36.156Z,23.10
2023-02-11T04:44:36.138Z,29.80
2023-02-11T04:45:36.189Z,26.40
2023-02-11T04:46:36.132Z,24.80
2023-02-11T04:47:36.116Z,23.90
2023-02-11T04:48:36.124Z,21.50
2023-02-11T04:49:36.091Z,20.20
2023-02-11T04:50:36.080Z,23.10
2023-02-11T04:51:36.069Z,19.70
2023-02-11T04:52:36.066Z,23.50
2023-02-11T04:53:36.069Z,23.30
2023-02-11T04:54:36.046Z,26.50
2023-02-11T04:55:36.036Z,26.20
2023-02-11T04:56:36.016Z,29.60
2023-02-11T04:57:36.038Z,23.00
2023-02-11T04:58:35.987Z,25.40
2023-02-11T04:59:35.985Z,17.90
2023-02-11T05:00:35.975Z,22.00
2023-02-11T05:01:36.018Z,24.10
2023-02-11T05:02:35.949Z,27.50
2023-02-11T05:03:35.964Z,18.70
2023-02-11T05:04:35.924Z,20.20
2023-02-11T05:05:35.915Z,20.60
2023-02-11T05:06:35.899Z,23.30
2023-02-11T05:07:35.918Z,20.20
2023-02-11T05:08:35.905Z,20.40
2023-02-11T05:09:35.875Z,19.60
2023-02-11T05:10:35.891Z,23.30
2023-02-11T05:11:35.862Z,24.60
2023-02-11T05:12:35.837Z,22.00
2023-02-11T05:13:35.827Z,22.00
2023-02-11T05:14:35.824Z,19.50
2023-02-11T05:15:35.826Z,23.90
2023-02-11T05:16:35.862Z,26.90
2023-02-11T05:17:35.787Z,24.90
2023-02-11T05:18:35.770Z,21.90
2023-02-11T05:19:35.768Z,25.50
2023-02-11T05:20:35.784Z,22.70
2023-02-11T05:21:35.736Z,23.10
2023-02-11T05:22:35.726Z,21.40
2023-02-11T05:23:35.716Z,22.50
2023-02-11T05:24:35.708Z,22.60
2023-02-11T05:25:35.736Z,21.80
2023-02-11T05:26:35.699Z,21.30
2023-02-11T05:27:35.686Z,24.10
2023-02-11T05:28:35.739Z,23.60
2023-02-11T05:29:35.663Z,21.50
2023-02-11T05:30:35.731Z,25.70
2023-02-11T05:31:35.639Z,24.50
2023-02-11T05:32:35.626Z,19.80
2023-02-11T05:33:35.608Z,18.20
2023-02-11T05:34:35.595Z,16.70
2023-02-11T05:35:35.588Z,23.10
2023-02-11T05:36:35.604Z,27.10
2023-02-11T05:37:35.592Z,24.70
2023-02-11T05:38:35.560Z,20.10
2023-02-11T05:39:35.551Z,22.50
2023-02-11T05:40:35.528Z,21.20
2023-02-11T05:41:35.546Z,21.50
2023-02-11T05:42:35.519Z,23.70
2023-02-11T05:43:35.493Z,21.10
2023-02-11T05:44:35.499Z,22.30
2023-02-11T05:45:35.476Z,20.00
2023-02-11T05:46:35.552Z,19.40
2023-02-11T05:47:35.488Z,23.50
2023-02-11T05:48:35.456Z,25.50
2023-02-11T05:49:35.441Z,20.50
2023-02-11T05:50:35.451Z,18.50
2023-02-11T05:51:35.418Z,16.20
2023-02-11T05:52:35.408Z,20.70
2023-02-11T05:53:35.397Z,27.40
2023-02-11T05:54:35.386Z,25.50
2023-02-11T05:55:35.368Z,19.90
2023-02-11T05:56:35.390Z,22.30
2023-02-11T05:57:35.364Z,21.40
2023-02-11T05:58:35.343Z,28.60
2023-02-11T05:59:35.365Z,24.90
2023-02-11T06:00:35.327Z,23.50
2023-02-11T06:01:35.316Z,14.90
2023-02-11T06:02:35.362Z,22.10
2023-02-11T06:03:35.300Z,24.90
2023-02-11T06:04:35.282Z,19.90
2023-02-11T06:05:35.288Z,22.00
2023-02-11T06:06:35.260Z,19.00
2023-02-11T06:07:35.244Z,23.10
2023-02-11T06:08:37.533Z,22.70
2023-02-11T06:09:35.249Z,21.20
2023-02-11T06:10:35.222Z,18.80
2023-02-11T06:11:35.208Z,21.90
2023-02-11T06:12:35.188Z,20.60
2023-02-11T06:13:35.174Z,19.60
2023-02-11T06:14:35.175Z,23.00
2023-02-11T06:15:35.180Z,26.70
2023-02-11T06:16:35.167Z,25.30
2023-02-11T06:17:35.140Z,28.40
2023-02-11T06:18:35.123Z,23.10
2023-02-11T06:19:35.110Z,16.80
2023-02-11T06:20:35.109Z,16.90
2023-02-11T06:21:43.313Z,21.90
2023-02-11T06:22:36.098Z,22.90
2023-02-11T06:23:35.076Z,21.90
2023-02-11T06:24:58.447Z,22.00
2023-02-11T06:25:36.054Z,19.00
2023-02-11T06:26:35.067Z,18.20
2023-02-11T06:27:35.023Z,19.30
2023-02-11T06:28:35.120Z,17.90
2023-02-11T06:29:35.010Z,22.00
2023-02-11T06:30:35.013Z,23.20
2023-02-11T06:31:35.086Z,20.60
2023-02-11T06:32:43.780Z,24.00
2023-02-11T06:33:35.971Z,22.80
2023-02-11T06:34:34.951Z,22.90
2023-02-11T06:35:34.951Z,25.60
2023-02-11T06:36:34.928Z,26.60
2023-02-11T06:37:34.942Z,22.40
2023-02-11T06:38:34.911Z,28.00
2023-02-11T06:39:34.919Z,17.40
2023-02-11T06:40:34.882Z,22.00
2023-02-11T06:41:34.882Z,24.80
2023-02-11T06:42:34.865Z,27.90
2023-02-11T06:43:34.858Z,18.50
2023-02-11T06:44:34.862Z,24.90
2023-02-11T06:45:34.832Z,23.40
2023-02-11T06:46:34.981Z,19.60
2023-02-11T06:47:34.809Z,27.10
2023-02-11T06:48:34.875Z,27.90
2023-02-11T06:49:34.827Z,21.60
2023-02-11T06:50:34.779Z,26.90
2023-02-11T06:51:34.778Z,30.00
2023-02-11T06:52:34.764Z,26.00
2023-02-11T06:53:34.757Z,22.70
2023-02-11T06:54:34.743Z,26.20
2023-02-11T06:55:34.754Z,25.50
2023-02-11T06:56:34.713Z,27.10
2023-02-11T06:57:34.702Z,25.10
2023-02-11T06:58:34.694Z,32.20
2023-02-11T06:59:34.681Z,23.30
2023-02-11T07:00:34.710Z,20.60
2023-02-11T07:01:34.720Z,28.10
2023-02-11T07:02:34.722Z,27.90
2023-02-11T07:03:34.645Z,24.90
2023-02-11T07:04:34.624Z,35.90
2023-02-11T07:05:34.622Z,25.90
2023-02-11T07:06:34.624Z,33.40
2023-02-11T07:07:34.590Z,32.10
2023-02-11T07:08:34.584Z,27.00
2023-02-11T07:09:34.602Z,24.50
2023-02-11T07:10:34.579Z,21.40
2023-02-11T07:11:34.559Z,29.90
2023-02-11T07:12:34.543Z,31.20
2023-02-11T07:13:34.536Z,33.60
2023-02-11T07:14:34.545Z,32.90
2023-02-11T07:15:34.512Z,27.80
2023-02-11T07:16:34.577Z,30.70
2023-02-11T07:17:34.491Z,34.70
2023-02-11T07:18:34.476Z,30.90
2023-02-11T07:19:34.470Z,35.30
2023-02-11T07:20:34.486Z,26.60
2023-02-11T07:21:34.478Z,26.60
2023-02-11T07:22:34.434Z,27.40
2023-02-11T07:23:34.434Z,35.30
2023-02-11T07:24:34.419Z,36.50
2023-02-11T07:25:34.401Z,27.00
2023-02-11T07:26:34.391Z,28.20
2023-02-11T07:27:34.404Z,31.60
2023-02-11T07:28:34.437Z,32.10
2023-02-11T07:29:34.363Z,24.70
2023-02-11T07:30:34.349Z,28.80
2023-02-11T07:31:34.428Z,25.10
2023-02-11T07:32:34.322Z,29.30
2023-02-11T07:33:34.342Z,31.70
2023-02-11T07:34:34.385Z,30.50
2023-02-11T07:35:34.294Z,25.10
2023-02-11T07:36:34.279Z,30.80
2023-02-11T07:37:34.269Z,29.50
2023-02-11T07:38:34.262Z,29.70
2023-02-11T07:39:34.263Z,30.70
2023-02-11T07:40:34.233Z,35.10
2023-02-11T07:41:37.362Z,31.70
2023-02-11T07:42:34.213Z,27.10
2023-02-11T07:43:34.211Z,22.10
2023-02-11T07:44:34.223Z,33.30
2023-02-11T07:45:34.182Z,27.40
2023-02-11T07:46:34.176Z,34.30
2023-02-11T07:47:34.154Z,37.60
2023-02-11T07:48:34.145Z,29.90
2023-02-11T07:49:34.145Z,27.80
2023-02-11T07:50:34.144Z,36.70
2023-02-11T07:51:34.134Z,31.00
2023-02-11T07:52:34.104Z,34.40
2023-02-11T07:53:34.100Z,27.50
2023-02-11T07:54:34.111Z,30.80
2023-02-11T07:55:34.073Z,30.80
2023-02-11T07:56:34.076Z,36.60
2023-02-11T07:57:34.056Z,30.30
2023-02-11T07:58:34.038Z,32.40
2023-02-11T07:59:34.031Z,33.10
2023-02-11T08:00:34.165Z,29.20
2023-02-11T08:01:34.029Z,27.70
2023-02-11T08:02:34.052Z,30.60
2023-02-11T08:03:34.001Z,25.70
2023-02-11T08:04:34.004Z,35.00
2023-02-11T08:05:33.963Z,42.40
2023-02-11T08:06:33.984Z,27.40
2023-02-11T08:07:33.943Z,33.70
2023-02-11T08:08:33.926Z,31.40
2023-02-11T08:09:34.629Z,36.80
2023-02-11T08:10:33.916Z,35.90
2023-02-11T08:11:33.899Z,29.00
2023-02-11T08:12:33.883Z,36.10
2023-02-11T08:13:33.884Z,31.20
2023-02-11T08:14:33.867Z,33.40
2023-02-11T08:15:33.882Z,26.30
2023-02-11T08:16:34.009Z,38.50
2023-02-11T08:17:33.831Z,32.10
2023-02-11T08:18:33.832Z,24.40
2023-02-11T08:19:35.229Z,39.90
2023-02-11T08:20:33.802Z,36.50
2023-02-11T08:21:33.822Z,25.70
2023-02-11T08:22:33.789Z,31.40
2023-02-11T08:23:33.784Z,37.70
2023-02-11T08:24:33.752Z,34.00
2023-02-11T08:25:33.758Z,36.50
2023-02-11T08:26:33.759Z,32.40
2023-02-11T08:27:33.731Z,35.50
2023-02-11T08:28:33.733Z,31.60
2023-02-11T08:29:33.701Z,32.10
2023-02-11T08:30:33.690Z,28.80
2023-02-11T08:31:33.842Z,34.10
2023-02-11T08:32:33.671Z,26.20
2023-02-11T08:33:33.662Z,27.10
2023-02-11T08:34:33.640Z,31.90
2023-02-11T08:35:33.640Z,30.00
2023-02-11T08:36:33.653Z,35.10
2023-02-11T08:37:33.612Z,33.00
2023-02-11T08:38:33.601Z,27.00
2023-02-11T08:39:33.589Z,29.50
2023-02-11T08:40:33.581Z,31.90
2023-02-11T08:41:33.594Z,31.60
2023-02-11T08:42:33.559Z,28.60
2023-02-11T08:43:33.557Z,32.20
2023-02-11T08:44:33.543Z,35.70
2023-02-11T08:45:33.599Z,35.30
2023-02-11T08:46:33.577Z,28.90
2023-02-11T08:47:33.534Z,33.50
2023-02-11T08:48:33.500Z,31.00
2023-02-11T08:49:33.489Z,30.60
2023-02-11T08:50:33.471Z,33.30
2023-02-11T08:51:33.462Z,33.20
2023-02-11T08:52:33.467Z,31.60
2023-02-11T08:53:33.484Z,40.10
2023-02-11T08:54:33.439Z,30.90
2023-02-11T08:55:33.430Z,30.70
2023-02-11T08:56:33.409Z,32.00
2023-02-11T08:57:33.401Z,29.80
2023-02-11T08:58:33.417Z,32.80
2023-02-11T08:59:33.393Z,39.90
2023-02-11T09:00:33.372Z,34.60
2023-02-11T09:01:33.401Z,28.70
2023-02-11T09:02:33.408Z,27.40
2023-02-11T09:03:33.369Z,35.30
2023-02-11T09:04:33.348Z,30.70
2023-02-11T09:05:33.333Z,32.30
2023-02-11T09:06:33.313Z,31.70
2023-02-11T09:07:33.320Z,33.00
2023-02-11T09:08:33.291Z,28.40
2023-02-11T09:09:33.302Z,33.10
2023-02-11T09:10:33.271Z,33.60
2023-02-11T09:11:33.264Z,33.00
2023-02-11T09:12:33.248Z,31.20
2023-02-11T09:13:33.241Z,34.70
2023-02-11T09:14:33.234Z,31.10
2023-02-11T09:15:33.232Z,32.80
2023-02-11T09:16:33.251Z,32.20
2023-02-11T09:17:33.193Z,36.00
2023-02-11T09:18:33.182Z,32.40
2023-02-11T09:19:33.173Z,28.80
2023-02-11T09:20:33.191Z,36.30
2023-02-11T09:21:33.162Z,34.60
2023-02-11T09:22:33.136Z,37.20
2023-02-11T09:23:33.125Z,29.30
2023-02-11T09:24:33.124Z,32.40
2023-02-11T09:25:33.105Z,38.50
2023-02-11T09:26:33.126Z,28.50
2023-02-11T09:27:33.086Z,33.60
2023-02-11T09:28:33.145Z,30.90
2023-02-11T09:29:33.068Z,29.40
2023-02-11T09:30:33.108Z,27.90
2023-02-11T09:31:33.121Z,30.00
2023-02-11T09:32:33.063Z,31.10
2023-02-11T09:33:33.027Z,39.80
2023-02-11T09:34:33.015Z,32.20
2023-02-11T09:35:33.015Z,36.30
2023-02-11T09:36:32.995Z,26.80
2023-02-11T09:37:35.102Z,36.20
2023-02-11T09:38:32.986Z,35.90
2023-02-11T09:39:32.957Z,33.00
2023-02-11T09:40:32.955Z,31.50
2023-02-11T09:41:32.938Z,33.40
2023-02-11T09:42:32.927Z,33.10
2023-02-11T09:43:32.937Z,35.50
2023-02-11T09:44:32.931Z,35.10
2023-02-11T09:45:32.892Z,32.80
2023-02-11T09:46:32.950Z,34.10
2023-02-11T09:47:32.875Z,34.10
2023-02-11T09:48:32.882Z,30.10
2023-02-11T09:49:32.879Z,34.60
2023-02-11T09:50:32.856Z,42.60
2023-02-11T09:51:32.827Z,33.50
2023-02-11T09:52:32.837Z,32.20
2023-02-11T09:53:32.829Z,33.10
2023-02-11T09:54:32.800Z,27.20
2023-02-11T09:55:32.808Z,38.90
2023-02-11T09:56:32.779Z,29.90
2023-02-11T09:57:32.779Z,31.70
2023-02-11T09:58:32.770Z,37.40
2023-02-11T09:59:32.752Z,33.50
2023-02-11T10:00:32.768Z,31.30
2023-02-11T10:01:32.779Z,33.50
2023-02-11T10:02:32.725Z,38.00
2023-02-11T10:03:32.710Z,27.90
2023-02-11T10:04:32.733Z,38.20
2023-02-11T10:05:32.713Z,41.90
2023-02-11T10:06:32.694Z,31.00
2023-02-11T10:07:32.673Z,33.60
2023-02-11T10:08:32.655Z,36.70
2023-02-11T10:09:32.649Z,36.70
2023-02-11T10:10:32.649Z,37.80
2023-02-11T10:11:32.717Z,34.40
2023-02-11T10:12:32.639Z,36.10
2023-02-11T10:13:32.604Z,33.90
2023-02-11T10:14:32.629Z,38.50
2023-02-11T10:15:32.616Z,29.50
2023-02-11T10:16:32.604Z,32.40
2023-02-11T10:17:32.560Z,37.70
2023-02-11T10:18:32.552Z,34.30
2023-02-11T10:19:32.561Z,36.00
2023-02-11T10:20:32.544Z,37.60
2023-02-11T10:21:32.524Z,31.80
2023-02-11T10:22:32.535Z,33.20
2023-02-11T10:23:32.493Z,31.60
2023-02-11T10:24:32.495Z,33.20
2023-02-11T10:25:32.477Z,32.80
2023-02-11T10:26:32.498Z,28.20
2023-02-11T10:27:32.459Z,28.60
2023-02-11T10:28:32.533Z,32.80
2023-02-11T10:29:32.443Z,31.10
2023-02-11T10:30:32.587Z,33.50
2023-02-11T10:31:32.619Z,27.50
2023-02-11T10:32:32.403Z,37.00
2023-02-11T10:33:32.421Z,35.40
2023-02-11T10:34:32.382Z,33.40
2023-02-11T10:35:32.364Z,31.60
2023-02-11T10:36:32.365Z,40.10
2023-02-11T10:37:32.354Z,36.90
2023-02-11T10:38:32.355Z,35.50
2023-02-11T10:39:32.327Z,34.90
2023-02-11T10:40:32.328Z,33.30
2023-02-11T10:41:32.308Z,38.00
2023-02-11T10:42:32.302Z,37.00
2023-02-11T10:43:32.319Z,33.30
2023-02-11T10:44:32.290Z,35.50
2023-02-11T10:45:32.253Z,40.60
2023-02-11T10:46:32.299Z,34.90
2023-02-11T10:47:32.237Z,34.10
2023-02-11T10:48:32.254Z,32.50
2023-02-11T10:49:32.224Z,34.70
2023-02-11T10:50:32.205Z,36.50
2023-02-11T10:51:32.208Z,30.40
2023-02-11T10:52:32.188Z,30.80
2023-02-11T10:53:32.195Z,30.80
2023-02-11T10:54:32.182Z,36.00
2023-02-11T10:55:32.156Z,31.90
2023-02-11T10:56:32.156Z,37.80
2023-02-11T10:57:32.134Z,26.00
2023-02-11T10:58:32.144Z,39.80
2023-02-11T10:59:32.108Z,35.30
2023-02-11T11:00:32.105Z,36.30
2023-02-11T11:01:32.126Z,35.60
2023-02-11T11:02:32.182Z,39.10
2023-02-11T11:03:32.073Z,31.40
2023-02-11T11:04:32.145Z,32.70
2023-02-11T11:05:32.063Z,35.90
2023-02-11T11:06:32.050Z,33.00
2023-02-11T11:07:32.017Z,35.70
2023-02-11T11:08:32.015Z,30.70
2023-02-11T11:09:32.014Z,29.30
2023-02-11T11:10:32.010Z,39.70
2023-02-11T11:11:31.980Z,39.30
2023-02-11T11:12:32.001Z,28.70
2023-02-11T11:13:31.963Z,38.70
2023-02-11T11:14:31.987Z,36.90
2023-02-11T11:15:31.946Z,41.10
2023-02-11T11:16:31.926Z,39.00
2023-02-11T11:17:31.916Z,37.60
2023-02-11T11:18:31.916Z,32.10
2023-02-11T11:19:31.897Z,38.80
2023-02-11T11:20:31.900Z,35.00
2023-02-11T11:21:31.898Z,36.30
2023-02-11T11:22:32.588Z,38.20
2023-02-11T11:23:31.938Z,34.00
2023-02-11T11:24:31.876Z,36.80
2023-02-11T11:25:31.851Z,32.30
2023-02-11T11:26:31.817Z,38.20
2023-02-11T11:27:31.847Z,38.00
2023-02-11T11:28:31.841Z,36.60
2023-02-11T11:29:31.786Z,32.80
2023-02-11T11:30:31.812Z,40.00
2023-02-11T11:31:31.907Z,40.20
2023-02-11T11:32:31.788Z,33.50
2023-02-11T11:33:31.750Z,36.70
2023-02-11T11:34:31.758Z,35.40
2023-02-11T11:35:31.719Z,34.40
2023-02-11T11:36:31.708Z,35.30
2023-02-11T11:37:31.767Z,31.90
2023-02-11T11:38:31.690Z,44.60
2023-02-11T11:39:31.691Z,37.30
2023-02-11T11:40:31.664Z,36.80
2023-02-11T11:41:31.674Z,34.00
2023-02-11T11:42:31.674Z,38.60
2023-02-11T11:43:31.665Z,26.10
2023-02-11T11:44:31.652Z,36.00
2023-02-11T11:45:31.605Z,32.50
2023-02-11T11:46:31.625Z,33.30
2023-02-11T11:47:31.582Z,34.70
2023-02-11T11:48:31.594Z,36.30
2023-02-11T11:49:31.732Z,34.90
2023-02-11T11:50:31.554Z,37.50
2023-02-11T11:51:31.551Z,37.20
2023-02-11T11:52:31.533Z,32.40
2023-02-11T11:53:31.518Z,38.40
2023-02-11T11:54:31.531Z,36.10
2023-02-11T11:55:31.522Z,35.80
2023-02-11T11:56:31.495Z,32.80
2023-02-11T11:57:31.485Z,32.20
2023-02-11T11:58:31.466Z,39.90
2023-02-11T11:59:31.462Z,39.30
2023-02-11T12:00:31.451Z,41.70
2023-02-11T12:01:31.537Z,36.30
2023-02-11T12:02:31.423Z,42.90
2023-02-11T12:03:31.466Z,41.00
2023-02-11T12:04:31.406Z,40.30
2023-02-11T12:05:31.405Z,40.50
2023-02-11T12:06:31.402Z,39.40
2023-02-11T12:07:31.370Z,27.50
2023-02-11T12:08:31.356Z,34.80
2023-02-11T12:09:31.344Z,30.10
2023-02-11T12:10:31.408Z,37.60
2023-02-11T12:11:31.355Z,38.60
2023-02-11T12:12:31.322Z,44.20
2023-02-11T12:13:31.313Z,46.00
2023-02-11T12:14:31.293Z,46.40
2023-02-11T12:15:31.288Z,32.60
2023-02-11T12:16:31.352Z,35.80
2023-02-11T12:17:31.263Z,39.20
2023-02-11T12:18:31.244Z,41.50
2023-02-11T12:19:31.241Z,39.70
2023-02-11T12:20:31.223Z,39.40
2023-02-11T12:21:31.205Z,39.50
2023-02-11T12:22:31.238Z,47.00
2023-02-11T12:23:31.195Z,33.30
2023-02-11T12:24:31.193Z,46.70
2023-02-11T12:25:31.171Z,42.40
2023-02-11T12:26:31.166Z,35.30
2023-02-11T12:27:31.152Z,37.40
2023-02-11T12:28:31.197Z,33.80
2023-02-11T12:29:31.129Z,37.30
2023-02-11T12:30:31.134Z,35.80
2023-02-11T12:31:31.176Z,32.50
2023-02-11T12:32:31.087Z,36.40
2023-02-11T12:33:31.122Z,34.60
2023-02-11T12:34:31.075Z,33.20
2023-02-11T12:35:31.059Z,34.00
2023-02-11T12:36:31.054Z,35.80
2023-02-11T12:37:31.039Z,35.90
2023-02-11T12:38:31.065Z,31.70
2023-02-11T12:39:31.017Z,33.30
2023-02-11T12:40:31.005Z,38.40
2023-02-11T12:41:31.000Z,29.50
2023-02-11T12:42:30.989Z,32.60
2023-02-11T12:43:30.990Z,34.00
2023-02-11T12:44:30.957Z,30.00
2023-02-11T12:45:30.975Z,33.70
2023-02-11T12:46:30.938Z,35.20
2023-02-11T12:47:30.927Z,37.90
2023-02-11T12:48:30.949Z,31.10
2023-02-11T12:49:30.919Z,30.80
2023-02-11T12:50:30.901Z,35.00
2023-02-11T12:51:30.890Z,37.40
2023-02-11T12:52:31.049Z,40.30